sensor_id;sensor_type;location;lat;lon;timestamp;pressure;altitude;pressure_sealevel;temperature;humidity
57086;BME280;42964;42.910;23.792;2023-07-20T00:03:10;97288.94;;;19.03;100.00
57086;BME280;42964;42.910;23.792;2023-07-20T00:08:09;97292.84;;;19.15;100.00
57086;BME280;42964;42.910;23.792;2023-07-20T00:13:09;97301.28;;;19.23;100.00
57086;BME280;42964;42.910;23.792;2023-07-20T00:18:08;97279.19;;;19.28;100.00
57086;BME280;42964;42.910;23.792;2023-07-20T00:23:07;97249.69;;;19.40;100.00
57086;BME280;42964;42.910;23.792;2023-07-20T00:28:06;97215.38;;;19.41;100.00
57086;BME280;42964;42.910;23.792;2023-07-20T00:33:05;97204.88;;;19.41;100.00
57086;BME280;42964;42.910;23.792;2023-07-20T00:38:04;97203.16;;;19.40;100.00
57086;BME280;42964;42.910;23.792;2023-07-20T00:43:03;97158.50;;;19.39;100.00
57086;BME280;42964;42.910;23.792;2023-07-20T00:48:04;97170.75;;;19.40;100.00
57086;BME280;42964;42.910;23.792;2023-07-20T00:53:04;97171.66;;;19.39;100.00
57086;BME280;42964;42.910;23.792;2023-07-20T00:58:04;97187.94;;;19.28;100.00
57086;BME280;42964;42.910;23.792;2023-07-20T01:03:03;97179.69;;;19.17;100.00
57086;BME280;42964;42.910;23.792;2023-07-20T01:13:45;97202.34;;;19.19;100.00
57086;BME280;42964;42.910;23.792;2023-07-20T01:18:44;97205.84;;;19.20;100.00
57086;BME280;42964;42.910;23.792;2023-07-20T01:34:34;97190.50;;;18.90;100.00
57086;BME280;42964;42.910;23.792;2023-07-20T01:39:34;97211.00;;;19.02;100.00
57086;BME280;42964;42.910;23.792;2023-07-20T01:44:36;97213.47;;;19.06;100.00
57086;BME280;42964;42.910;23.792;2023-07-20T01:49:35;97214.28;;;19.08;100.00
57086;BME280;42964;42.910;23.792;2023-07-20T01:54:34;97203.56;;;19.12;100.00
57086;BME280;42964;42.910;23.792;2023-07-20T01:59:33;97199.94;;;19.15;100.00
57086;BME280;42964;42.910;23.792;2023-07-20T02:04:32;97203.56;;;19.12;100.00
57086;BME280;42964;42.910;23.792;2023-07-20T02:09:31;97205.84;;;19.20;100.00
57086;BME280;42964;42.910;23.792;2023-07-20T02:14:30;97188.28;;;19.20;100.00
57086;BME280;42964;42.910;23.792;2023-07-20T02:19:30;97161.03;;;19.02;100.00
57086;BME280;42964;42.910;23.792;2023-07-20T02:24:29;97183.38;;;19.13;100.00
57086;BME280;42964;42.910;23.792;2023-07-20T02:29:28;97181.94;;;19.06;100.00
57086;BME280;42964;42.910;23.792;2023-07-20T02:34:27;97198.25;;;18.93;100.00
57086;BME280;42964;42.910;23.792;2023-07-20T02:39:29;97202.31;;;18.80;100.00
57086;BME280;42964;42.910;23.792;2023-07-20T02:44:28;97197.41;;;18.72;100.00
57086;BME280;42964;42.910;23.792;2023-07-20T02:49:27;97165.09;;;18.48;100.00
57086;BME280;42964;42.910;23.792;2023-07-20T02:54:26;97198.50;;;18.67;100.00
57086;BME280;42964;42.910;23.792;2023-07-20T02:59:25;97208.22;;;18.65;100.00
57086;BME280;42964;42.910;23.792;2023-07-20T03:04:27;97202.97;;;18.65;100.00
57086;BME280;42964;42.910;23.792;2023-07-20T03:09:26;97215.94;;;18.69;100.00
57086;BME280;42964;42.910;23.792;2023-07-20T03:14:25;97213.22;;;18.71;100.00
57086;BME280;42964;42.910;23.792;2023-07-20T03:19:24;97211.13;;;18.79;100.00
57086;BME280;42964;42.910;23.792;2023-07-20T03:24:23;97214.56;;;18.81;100.00
57086;BME280;42964;42.910;23.792;2023-07-20T03:29:22;97209.56;;;18.75;100.00
57086;BME280;42964;42.910;23.792;2023-07-20T03:34:21;97206.97;;;18.73;100.00
57086;BME280;42964;42.910;23.792;2023-07-20T03:39:22;97210.28;;;18.78;100.00
57086;BME280;42964;42.910;23.792;2023-07-20T03:44:21;97204.66;;;18.66;100.00
57086;BME280;42964;42.910;23.792;2023-07-20T03:49:20;97203.16;;;18.60;100.00
57086;BME280;42964;42.910;23.792;2023-07-20T03:54:19;97203.06;;;18.61;100.00
57086;BME280;42964;42.910;23.792;2023-07-20T03:59:18;97192.09;;;18.52;100.00
57086;BME280;42964;42.910;23.792;2023-07-20T04:04:17;97213.50;;;18.43;100.00
57086;BME280;42964;42.910;23.792;2023-07-20T04:09:16;97221.59;;;18.58;100.00
57086;BME280;42964;42.910;23.792;2023-07-20T04:14:15;97231.44;;;18.75;100.00
57086;BME280;42964;42.910;23.792;2023-07-20T04:19:14;97224.78;;;18.87;100.00
57086;BME280;42964;42.910;23.792;2023-07-20T04:24:13;97221.56;;;19.01;100.00
57086;BME280;42964;42.910;23.792;2023-07-20T04:29:12;97211.19;;;19.18;100.00
57086;BME280;42964;42.910;23.792;2023-07-20T04:34:11;97197.03;;;19.21;100.00
57086;BME280;42964;42.910;23.792;2023-07-20T04:39:10;97200.69;;;19.37;100.00
57086;BME280;42964;42.910;23.792;2023-07-20T04:44:09;97195.25;;;19.61;100.00
57086;BME280;42964;42.910;23.792;2023-07-20T04:49:08;97189.56;;;19.70;100.00
57086;BME280;42964;42.910;23.792;2023-07-20T04:54:07;97184.72;;;19.80;100.00
57086;BME280;42964;42.910;23.792;2023-07-20T04:59:07;97179.53;;;19.78;100.00
57086;BME280;42964;42.910;23.792;2023-07-20T05:04:06;97193.09;;;19.88;100.00
57086;BME280;42964;42.910;23.792;2023-07-20T05:09:05;97156.31;;;19.86;100.00
57086;BME280;42964;42.910;23.792;2023-07-20T05:14:06;97171.09;;;20.08;100.00
57086;BME280;42964;42.910;23.792;2023-07-20T05:19:05;97178.78;;;20.30;100.00
57086;BME280;42964;42.910;23.792;2023-07-20T05:24:04;97179.19;;;20.40;100.00
57086;BME280;42964;42.910;23.792;2023-07-20T05:29:04;97179.75;;;20.46;100.00
57086;BME280;42964;42.910;23.792;2023-07-20T05:34:02;97153.41;;;20.46;100.00
57086;BME280;42964;42.910;23.792;2023-07-20T05:39:01;97160.59;;;20.60;100.00
57086;BME280;42964;42.910;23.792;2023-07-20T05:44:00;97147.91;;;20.68;100.00
57086;BME280;42964;42.910;23.792;2023-07-20T05:48:59;97169.28;;;20.62;100.00
57086;BME280;42964;42.910;23.792;2023-07-20T05:53:59;97179.53;;;20.51;100.00
57086;BME280;42964;42.910;23.792;2023-07-20T05:58:58;97183.44;;;20.61;100.00
57086;BME280;42964;42.910;23.792;2023-07-20T06:03:57;97170.84;;;20.49;100.00
57086;BME280;42964;42.910;23.792;2023-07-20T06:08:56;97189.22;;;20.85;100.00
57086;BME280;42964;42.910;23.792;2023-07-20T06:13:55;97192.13;;;21.14;100.00
57086;BME280;42964;42.910;23.792;2023-07-20T06:18:55;97186.59;;;21.36;100.00
57086;BME280;42964;42.910;23.792;2023-07-20T06:23:54;97129.53;;;21.33;100.00
57086;BME280;42964;42.910;23.792;2023-07-20T06:28:53;97164.66;;;21.83;100.00
57086;BME280;42964;42.910;23.792;2023-07-20T06:33:52;97174.25;;;22.02;100.00
57086;BME280;42964;42.910;23.792;2023-07-20T06:38:51;97173.41;;;22.31;100.00
57086;BME280;42964;42.910;23.792;2023-07-20T06:43:50;97160.16;;;22.47;100.00
57086;BME280;42964;42.910;23.792;2023-07-20T06:48:51;97171.44;;;22.65;100.00
57086;BME280;42964;42.910;23.792;2023-07-20T06:53:50;97172.94;;;22.69;100.00
57086;BME280;42964;42.910;23.792;2023-07-20T06:58:49;97176.34;;;23.01;100.00
57086;BME280;42964;42.910;23.792;2023-07-20T07:03:48;97180.16;;;23.26;96.83
57086;BME280;42964;42.910;23.792;2023-07-20T07:08:47;97178.00;;;23.61;93.83
57086;BME280;42964;42.910;23.792;2023-07-20T07:13:46;97178.44;;;23.82;91.82
57086;BME280;42964;42.910;23.792;2023-07-20T07:18:46;97189.16;;;24.22;91.57
57086;BME280;42964;42.910;23.792;2023-07-20T07:23:45;97197.56;;;24.69;91.54
57086;BME280;42964;42.910;23.792;2023-07-20T07:28:44;97207.44;;;25.32;91.03
57086;BME280;42964;42.910;23.792;2023-07-20T07:33:44;97214.41;;;25.85;79.90
57086;BME280;42964;42.910;23.792;2023-07-20T07:38:43;97218.75;;;26.35;77.40
57086;BME280;42964;42.910;23.792;2023-07-20T07:43:42;97192.47;;;26.55;75.67
57086;BME280;42964;42.910;23.792;2023-07-20T07:48:42;97234.69;;;26.60;72.30
57086;BME280;42964;42.910;23.792;2023-07-20T07:53:41;97227.00;;;26.68;75.77
57086;BME280;42964;42.910;23.792;2023-07-20T07:58:41;97233.50;;;26.88;68.76
57086;BME280;42964;42.910;23.792;2023-07-20T08:03:40;97250.16;;;27.03;71.15
57086;BME280;42964;42.910;23.792;2023-07-20T08:08:39;97283.84;;;27.15;70.30
57086;BME280;42964;42.910;23.792;2023-07-20T08:13:38;97269.56;;;27.27;70.02
57086;BME280;42964;42.910;23.792;2023-07-20T08:18:37;97265.22;;;27.37;64.02
57086;BME280;42964;42.910;23.792;2023-07-20T08:23:36;97285.38;;;26.82;58.32
57086;BME280;42964;42.910;23.792;2023-07-20T08:28:35;97320.16;;;26.31;57.37
57086;BME280;42964;42.910;23.792;2023-07-20T08:33:34;97310.03;;;26.36;57.88
57086;BME280;42964;42.910;23.792;2023-07-20T08:38:33;97305.69;;;26.22;55.78
57086;BME280;42964;42.910;23.792;2023-07-20T08:43:33;97303.78;;;26.37;57.29
57086;BME280;42964;42.910;23.792;2023-07-20T08:48:33;97309.75;;;26.28;52.89
57086;BME280;42964;42.910;23.792;2023-07-20T08:53:32;97298.50;;;26.48;53.95
57086;BME280;42964;42.910;23.792;2023-07-20T08:58:34;97316.53;;;26.32;49.92
57086;BME280;42964;42.910;23.792;2023-07-20T09:03:33;97305.47;;;26.25;48.98
57086;BME280;42964;42.910;23.792;2023-07-20T09:08:32;97299.94;;;26.15;50.01
57086;BME280;42964;42.910;23.792;2023-07-20T09:13:33;97291.66;;;26.33;50.85
57086;BME280;42964;42.910;23.792;2023-07-20T09:18:32;97253.94;;;26.39;50.12
57086;BME280;42964;42.910;23.792;2023-07-20T09:23:34;97256.09;;;26.82;49.81
57086;BME280;42964;42.910;23.792;2023-07-20T09:28:41;97244.81;;;27.03;48.74
57086;BME280;42964;42.910;23.792;2023-07-20T09:33:41;97263.63;;;27.12;47.91
57086;BME280;42964;42.910;23.792;2023-07-20T09:38:43;97246.69;;;27.25;47.49
57086;BME280;42964;42.910;23.792;2023-07-20T09:43:42;97257.06;;;27.52;45.90
57086;BME280;42964;42.910;23.792;2023-07-20T09:48:41;97236.31;;;27.89;46.92
57086;BME280;42964;42.910;23.792;2023-07-20T09:53:52;97224.53;;;28.37;46.83
57086;BME280;42964;42.910;23.792;2023-07-20T09:58:52;97236.09;;;28.70;45.56
57086;BME280;42964;42.910;23.792;2023-07-20T10:03:53;97230.00;;;29.21;43.48
57086;BME280;42964;42.910;23.792;2023-07-20T10:08:53;97198.66;;;29.23;41.85
57086;BME280;42964;42.910;23.792;2023-07-20T10:13:55;97188.97;;;29.53;41.22
57086;BME280;42964;42.910;23.792;2023-07-20T10:24:02;97175.06;;;30.59;39.15
57086;BME280;42964;42.910;23.792;2023-07-20T10:29:02;97173.59;;;31.13;38.75
57086;BME280;42964;42.910;23.792;2023-07-20T10:34:02;97149.38;;;31.43;37.01
57086;BME280;42964;42.910;23.792;2023-07-20T10:39:02;97141.31;;;31.80;37.49
57086;BME280;42964;42.910;23.792;2023-07-20T10:44:07;97129.06;;;32.05;35.52
57086;BME280;42964;42.910;23.792;2023-07-20T10:49:07;97112.59;;;32.18;38.04
57086;BME280;42964;42.910;23.792;2023-07-20T11:04:18;97116.53;;;32.85;36.96
57086;BME280;42964;42.910;23.792;2023-07-20T11:09:22;97089.41;;;32.71;36.42
57086;BME280;42964;42.910;23.792;2023-07-20T11:14:25;97071.97;;;32.75;38.02
57086;BME280;42964;42.910;23.792;2023-07-20T11:19:25;97060.31;;;32.66;38.15
57086;BME280;42964;42.910;23.792;2023-07-20T11:24:25;97058.59;;;32.39;36.61
57086;BME280;42964;42.910;23.792;2023-07-20T11:29:24;97058.44;;;32.05;38.29
57086;BME280;42964;42.910;23.792;2023-07-20T11:34:24;97022.19;;;31.55;38.00
57086;BME280;42964;42.910;23.792;2023-07-20T11:39:23;97032.53;;;31.40;38.27
57086;BME280;42964;42.910;23.792;2023-07-20T11:44:28;97027.50;;;31.37;40.22
57086;BME280;42964;42.910;23.792;2023-07-20T11:49:28;97018.97;;;31.51;39.40
57086;BME280;42964;42.910;23.792;2023-07-20T11:54:27;97014.47;;;31.70;39.60
57086;BME280;42964;42.910;23.792;2023-07-20T11:59:26;97005.41;;;31.71;39.68
57086;BME280;42964;42.910;23.792;2023-07-20T12:04:25;96963.84;;;31.39;40.04
57086;BME280;42964;42.910;23.792;2023-07-20T12:09:24;96991.19;;;31.88;40.59
57086;BME280;42964;42.910;23.792;2023-07-20T12:14:25;96992.59;;;32.36;38.72
57086;BME280;42964;42.910;23.792;2023-07-20T12:19:25;96975.50;;;32.19;38.07
57086;BME280;42964;42.910;23.792;2023-07-20T12:24:24;96988.94;;;32.46;37.61
57086;BME280;42964;42.910;23.792;2023-07-20T12:29:23;96958.19;;;31.96;37.53
57086;BME280;42964;42.910;23.792;2023-07-20T12:34:23;96982.38;;;32.14;37.37
57086;BME280;42964;42.910;23.792;2023-07-20T12:39:22;96977.03;;;32.48;37.56
57086;BME280;42964;42.910;23.792;2023-07-20T12:44:20;96979.66;;;32.84;36.76
57086;BME280;42964;42.910;23.792;2023-07-20T12:49:19;96978.63;;;32.85;36.88
57086;BME280;42964;42.910;23.792;2023-07-20T12:54:18;96974.31;;;33.26;35.47
57086;BME280;42964;42.910;23.792;2023-07-20T12:59:17;96967.53;;;33.73;34.20
57086;BME280;42964;42.910;23.792;2023-07-20T13:04:16;96961.50;;;34.04;34.16
57086;BME280;42964;42.910;23.792;2023-07-20T13:09:15;96971.59;;;34.02;32.98
57086;BME280;42964;42.910;23.792;2023-07-20T13:14:14;96962.66;;;33.77;34.04
57086;BME280;42964;42.910;23.792;2023-07-20T13:19:13;96966.69;;;33.64;33.06
57086;BME280;42964;42.910;23.792;2023-07-20T13:24:12;96964.22;;;33.29;32.83
57086;BME280;42964;42.910;23.792;2023-07-20T13:29:11;96954.66;;;33.26;33.20
57086;BME280;42964;42.910;23.792;2023-07-20T13:34:10;96965.72;;;33.23;34.29
57086;BME280;42964;42.910;23.792;2023-07-20T13:39:09;96973.75;;;32.80;37.03
57086;BME280;42964;42.910;23.792;2023-07-20T13:44:08;96970.06;;;32.81;37.78
57086;BME280;42964;42.910;23.792;2023-07-20T13:49:07;96963.50;;;32.32;39.70
57086;BME280;42964;42.910;23.792;2023-07-20T13:54:06;96957.41;;;32.21;40.36
57086;BME280;42964;42.910;23.792;2023-07-20T13:59:05;96978.88;;;32.21;40.78
57086;BME280;42964;42.910;23.792;2023-07-20T14:04:04;96988.56;;;31.61;41.21
57086;BME280;42964;42.910;23.792;2023-07-20T14:09:03;96970.97;;;31.48;42.06
57086;BME280;42964;42.910;23.792;2023-07-20T14:14:02;96989.25;;;31.63;42.21
57086;BME280;42964;42.910;23.792;2023-07-20T14:19:01;96990.31;;;31.52;41.21
57086;BME280;42964;42.910;23.792;2023-07-20T14:24:00;96992.94;;;31.34;42.02
57086;BME280;42964;42.910;23.792;2023-07-20T14:28:59;96996.06;;;30.64;43.62
57086;BME280;42964;42.910;23.792;2023-07-20T14:33:58;97003.03;;;30.85;43.23
57086;BME280;42964;42.910;23.792;2023-07-20T14:38:57;97018.88;;;30.68;43.50
57086;BME280;42964;42.910;23.792;2023-07-20T14:43:56;97013.28;;;30.52;43.48
57086;BME280;42964;42.910;23.792;2023-07-20T14:48:55;97006.78;;;30.35;44.58
57086;BME280;42964;42.910;23.792;2023-07-20T14:53:54;97012.59;;;30.30;44.96
57086;BME280;42964;42.910;23.792;2023-07-20T14:58:53;97015.78;;;30.53;44.48
57086;BME280;42964;42.910;23.792;2023-07-20T15:03:52;97017.66;;;30.43;45.36
57086;BME280;42964;42.910;23.792;2023-07-20T15:08:52;97019.44;;;30.62;45.06
57086;BME280;42964;42.910;23.792;2023-07-20T15:13:51;97028.25;;;30.45;44.94
57086;BME280;42964;42.910;23.792;2023-07-20T15:18:50;97038.91;;;30.54;44.63
57086;BME280;42964;42.910;23.792;2023-07-20T15:23:49;97051.59;;;30.13;43.89
57086;BME280;42964;42.910;23.792;2023-07-20T15:28:48;97047.78;;;30.16;44.59
57086;BME280;42964;42.910;23.792;2023-07-20T15:33:47;97048.94;;;29.84;44.59
57086;BME280;42964;42.910;23.792;2023-07-20T15:38:46;97051.97;;;29.70;44.77
57086;BME280;42964;42.910;23.792;2023-07-20T15:43:45;97065.59;;;29.57;44.81
57086;BME280;42964;42.910;23.792;2023-07-20T15:48:46;97057.16;;;29.62;44.10
57086;BME280;42964;42.910;23.792;2023-07-20T15:53:45;97068.56;;;29.54;43.25
57086;BME280;42964;42.910;23.792;2023-07-20T15:58:44;97070.00;;;29.68;42.45
57086;BME280;42964;42.910;23.792;2023-07-20T16:03:43;97082.44;;;29.48;42.07
57086;BME280;42964;42.910;23.792;2023-07-20T16:08:42;97082.59;;;29.46;42.43
57086;BME280;42964;42.910;23.792;2023-07-20T16:13:41;97087.53;;;29.51;41.76
57086;BME280;42964;42.910;23.792;2023-07-20T16:18:42;97087.28;;;29.64;41.60
57086;BME280;42964;42.910;23.792;2023-07-20T16:23:41;97101.69;;;29.82;41.79
57086;BME280;42964;42.910;23.792;2023-07-20T16:28:40;97112.38;;;29.73;41.13
57086;BME280;42964;42.910;23.792;2023-07-20T16:33:41;97110.44;;;29.84;40.64
57086;BME280;42964;42.910;23.792;2023-07-20T16:38:41;97121.69;;;29.88;41.11
57086;BME280;42964;42.910;23.792;2023-07-20T16:43:40;97103.63;;;29.70;40.72
57086;BME280;42964;42.910;23.792;2023-07-20T16:48:39;97127.59;;;29.82;40.71
57086;BME280;42964;42.910;23.792;2023-07-20T16:53:38;97131.63;;;29.66;41.42
57086;BME280;42964;42.910;23.792;2023-07-20T16:58:37;97137.13;;;29.65;41.50
57086;BME280;42964;42.910;23.792;2023-07-20T17:03:36;97146.50;;;29.59;41.32
57086;BME280;42964;42.910;23.792;2023-07-20T17:08:35;97144.31;;;29.34;41.25
57086;BME280;42964;42.910;23.792;2023-07-20T17:13:34;97152.88;;;29.06;40.67
57086;BME280;42964;42.910;23.792;2023-07-20T17:18:33;97156.56;;;28.94;40.73
57086;BME280;42964;42.910;23.792;2023-07-20T17:23:32;97158.69;;;28.58;41.32
57086;BME280;42964;42.910;23.792;2023-07-20T17:28:31;97164.06;;;28.47;41.33
57086;BME280;42964;42.910;23.792;2023-07-20T17:33:30;97159.78;;;28.23;41.65
57086;BME280;42964;42.910;23.792;2023-07-20T17:38:29;97167.78;;;28.23;41.89
57086;BME280;42964;42.910;23.792;2023-07-20T17:43:28;97166.16;;;27.89;42.04
57086;BME280;42964;42.910;23.792;2023-07-20T17:48:27;97165.66;;;27.95;42.20
57086;BME280;42964;42.910;23.792;2023-07-20T17:53:26;97169.91;;;27.86;42.18
57086;BME280;42964;42.910;23.792;2023-07-20T17:58:25;97181.94;;;27.80;42.47
57086;BME280;42964;42.910;23.792;2023-07-20T18:03:24;97183.63;;;27.70;42.50
57086;BME280;42964;42.910;23.792;2023-07-20T18:08:23;97185.81;;;27.65;45.39
57086;BME280;42964;42.910;23.792;2023-07-20T18:13:24;97186.38;;;27.35;47.13
57086;BME280;42964;42.910;23.792;2023-07-20T18:18:23;97200.16;;;27.06;48.45
57086;BME280;42964;42.910;23.792;2023-07-20T18:23:21;97205.63;;;26.81;49.35
57086;BME280;42964;42.910;23.792;2023-07-20T18:28:20;97212.56;;;26.59;49.77
57086;BME280;42964;42.910;23.792;2023-07-20T18:33:19;97207.75;;;26.40;49.66
57086;BME280;42964;42.910;23.792;2023-07-20T18:38:18;97214.44;;;26.22;50.21
57086;BME280;42964;42.910;23.792;2023-07-20T18:43:17;97222.31;;;26.10;50.91
57086;BME280;42964;42.910;23.792;2023-07-20T18:48:16;97228.53;;;25.98;51.41
57086;BME280;42964;42.910;23.792;2023-07-20T18:53:15;97238.31;;;25.85;52.14
57086;BME280;42964;42.910;23.792;2023-07-20T18:58:14;97247.72;;;25.65;52.53
57086;BME280;42964;42.910;23.792;2023-07-20T19:03:13;97249.59;;;25.50;52.90
57086;BME280;42964;42.910;23.792;2023-07-20T19:08:12;97259.38;;;25.37;53.08
57086;BME280;42964;42.910;23.792;2023-07-20T19:13:11;97263.19;;;25.20;53.73
57086;BME280;42964;42.910;23.792;2023-07-20T19:18:12;97284.63;;;25.04;54.69
57086;BME280;42964;42.910;23.792;2023-07-20T19:23:11;97288.88;;;24.79;56.08
57086;BME280;42964;42.910;23.792;2023-07-20T19:28:09;97290.13;;;24.46;57.60
57086;BME280;42964;42.910;23.792;2023-07-20T19:33:08;97294.50;;;24.33;57.92
57086;BME280;42964;42.910;23.792;2023-07-20T19:38:10;97253.84;;;24.05;57.95
57086;BME280;42964;42.910;23.792;2023-07-20T19:43:09;97268.50;;;24.11;58.29
57086;BME280;42964;42.910;23.792;2023-07-20T19:48:11;97312.03;;;24.21;58.80
57086;BME280;42964;42.910;23.792;2023-07-20T19:53:10;97324.66;;;24.03;60.19
57086;BME280;42964;42.910;23.792;2023-07-20T19:58:09;97323.03;;;23.87;61.24
57086;BME280;42964;42.910;23.792;2023-07-20T20:03:08;97320.09;;;23.77;61.41
57086;BME280;42964;42.910;23.792;2023-07-20T20:08:07;97329.19;;;23.73;62.24
57086;BME280;42964;42.910;23.792;2023-07-20T20:13:07;97330.50;;;23.66;62.87
57086;BME280;42964;42.910;23.792;2023-07-20T20:18:06;97336.72;;;23.50;64.30
57086;BME280;42964;42.910;23.792;2023-07-20T20:23:20;97336.75;;;23.34;64.62
57086;BME280;42964;42.910;23.792;2023-07-20T20:28:19;97339.09;;;23.25;65.29
57086;BME280;42964;42.910;23.792;2023-07-20T20:33:19;97338.59;;;23.18;65.56
57086;BME280;42964;42.910;23.792;2023-07-20T20:38:19;97318.59;;;22.98;66.15
57086;BME280;42964;42.910;23.792;2023-07-20T20:43:19;97330.69;;;23.02;66.67
57086;BME280;42964;42.910;23.792;2023-07-20T20:48:18;97307.34;;;22.78;68.32
57086;BME280;42964;42.910;23.792;2023-07-20T20:53:17;97315.56;;;22.74;68.45
57086;BME280;42964;42.910;23.792;2023-07-20T20:58:17;97337.91;;;22.68;69.09
57086;BME280;42964;42.910;23.792;2023-07-20T21:03:16;97335.44;;;22.65;69.28
57086;BME280;42964;42.910;23.792;2023-07-20T21:08:15;97335.84;;;22.57;69.70
57086;BME280;42964;42.910;23.792;2023-07-20T21:13:14;97337.38;;;22.46;72.19
57086;BME280;42964;42.910;23.792;2023-07-20T21:18:13;97351.28;;;22.33;73.83
57086;BME280;42964;42.910;23.792;2023-07-20T21:23:12;97353.06;;;22.17;74.72
57086;BME280;42964;42.910;23.792;2023-07-20T21:28:11;97356.06;;;21.93;75.84
57086;BME280;42964;42.910;23.792;2023-07-20T21:33:10;97362.28;;;21.92;75.89
57086;BME280;42964;42.910;23.792;2023-07-20T21:38:12;97375.81;;;21.86;75.50
57086;BME280;42964;42.910;23.792;2023-07-20T21:43:11;97376.59;;;21.88;75.78
57086;BME280;42964;42.910;23.792;2023-07-20T21:48:10;97371.31;;;21.71;75.78
57086;BME280;42964;42.910;23.792;2023-07-20T21:53:10;97385.03;;;21.62;76.46
57086;BME280;42964;42.910;23.792;2023-07-20T21:58:10;97380.13;;;21.37;77.49
57086;BME280;42964;42.910;23.792;2023-07-20T22:03:11;97382.88;;;21.16;78.17
57086;BME280;42964;42.910;23.792;2023-07-20T22:08:11;97395.22;;;21.16;78.08
57086;BME280;42964;42.910;23.792;2023-07-20T22:13:11;97395.59;;;21.08;78.84
57086;BME280;42964;42.910;23.792;2023-07-20T22:18:10;97391.41;;;21.04;78.77
57086;BME280;42964;42.910;23.792;2023-07-20T22:23:09;97399.94;;;21.09;78.52
57086;BME280;42964;42.910;23.792;2023-07-20T22:28:08;97401.84;;;21.05;78.65
57086;BME280;42964;42.910;23.792;2023-07-20T22:33:07;97409.25;;;20.99;78.94
57086;BME280;42964;42.910;23.792;2023-07-20T22:38:06;97410.09;;;20.99;79.21
57086;BME280;42964;42.910;23.792;2023-07-20T22:43:05;97406.72;;;20.96;80.60
57086;BME280;42964;42.910;23.792;2023-07-20T22:48:04;97397.34;;;20.90;80.93
57086;BME280;42964;42.910;23.792;2023-07-20T22:53:03;97392.34;;;20.84;81.15
57086;BME280;42964;42.910;23.792;2023-07-20T22:58:02;97398.56;;;20.83;81.17
57086;BME280;42964;42.910;23.792;2023-07-20T23:03:02;97407.13;;;20.69;83.57
57086;BME280;42964;42.910;23.792;2023-07-20T23:08:02;97410.63;;;20.50;84.00
57086;BME280;42964;42.910;23.792;2023-07-20T23:13:01;97417.22;;;20.21;85.26
57086;BME280;42964;42.910;23.792;2023-07-20T23:18:01;97367.09;;;19.83;85.43
57086;BME280;42964;42.910;23.792;2023-07-20T23:23:00;97407.38;;;20.06;86.17
57086;BME280;42964;42.910;23.792;2023-07-20T23:28:00;97407.38;;;20.06;85.59
57086;BME280;42964;42.910;23.792;2023-07-20T23:32:59;97386.97;;;19.91;85.90
57086;BME280;42964;42.910;23.792;2023-07-20T23:37:58;97407.50;;;20.03;85.91
57086;BME280;42964;42.910;23.792;2023-07-20T23:42:59;97400.91;;;19.93;86.51
57086;BME280;42964;42.910;23.792;2023-07-20T23:47:58;97396.59;;;19.92;86.59
57086;BME280;42964;42.910;23.792;2023-07-20T23:52:57;97409.75;;;19.92;87.77
57086;BME280;42964;42.910;23.792;2023-07-20T23:57:56;97412.59;;;19.87;87.97
